Time;durP1;ratioP1;P1;durP2;ratioP2;P2;SDS_P1;SDS_P2;PMS_P1;PMS_P2;Temp;Humidity;BMP_temperature;BMP_pressure;BME280_temperature;BME280_humidity;BME280_pressure;Samples;Min_cycle;Max_cycle;Signal;HPM_P1;HPM_P2
2023/07/29 00:02:26;;;;;;;7.35;3.33;;;;;;;;;;5048530;28;20029;-69
2023/07/29 00:04:52;;;;;;;4.55;2.55;;;;;;;;;;5059150;28;20056;-70
2023/07/29 00:07:18;;;;;;;3.42;2.53;;;;;;;;;;5057407;28;20376;-70
2023/07/29 00:09:44;;;;;;;2.85;1.90;;;;;;;;;;5051877;28;20029;-70
2023/07/29 00:12:10;;;;;;;6.10;2.97;;;;;;;;;;5049267;28;20431;-71
2023/07/29 00:14:36;;;;;;;6.05;2.35;;;;;;;;;;5058763;28;20020;-70
2023/07/29 00:17:03;;;;;;;5.38;2.22;;;;;;;;;;5052125;28;20025;-70
2023/07/29 00:19:29;;;;;;;4.68;2.53;;;;;;;;;;5073394;28;20029;-70
2023/07/29 00:21:55;;;;;;;5.32;2.30;;;;;;;;;;5062852;28;20033;-70
2023/07/29 00:24:21;;;;;;;4.10;2.35;;;;;;;;;;5059262;28;20190;-70
2023/07/29 00:26:47;;;;;;;5.05;2.30;;;;;;;;;;5049932;28;20025;-70
2023/07/29 00:29:13;;;;;;;4.38;2.33;;;;;;;;;;5052226;28;20159;-69
2023/07/29 00:31:40;;;;;;;5.95;2.58;;;;;;;;;;5054696;28;20025;-69
2023/07/29 00:34:06;;;;;;;6.22;2.38;;;;;;;;;;5060382;28;20049;-69
2023/07/29 00:36:32;;;;;;;3.50;2.05;;;;;;;;;;5055263;28;20163;-70
2023/07/29 00:38:58;;;;;;;3.47;2.08;;;;;;;;;;5060893;28;20094;-69
2023/07/29 00:41:25;;;;;;;8.60;3.08;;;;;;;;;;5067521;28;20032;-70
2023/07/29 00:43:51;;;;;;;3.35;2.22;;;;;;;;;;5056955;28;20053;-69
2023/07/29 00:46:18;;;;;;;3.28;2.00;;;;;;;;;;5060531;28;20029;-69
2023/07/29 00:48:44;;;;;;;3.13;2.25;;;;;;;;;;5058934;28;20411;-74
2023/07/29 00:51:10;;;;;;;7.32;2.22;;;;;;;;;;5069297;28;20043;-70
2023/07/29 00:53:36;;;;;;;5.85;2.63;;;;;;;;;;5052982;28;20079;-70
2023/07/29 00:56:02;;;;;;;7.15;3.10;;;;;;;;;;5060812;28;20051;-69
2023/07/29 00:58:28;;;;;;;4.60;2.80;;;;;;;;;;5060641;28;20044;-70
2023/07/29 01:00:55;;;;;;;6.18;2.90;;;;;;;;;;5061483;28;20033;-70
2023/07/29 01:03:21;;;;;;;6.93;2.30;;;;;;;;;;5054276;28;20025;-69
2023/07/29 01:05:57;;;;;;;6.53;2.28;;;;;;;;;;5063086;28;20017;-70
2023/07/29 01:08:29;;;;;;;6.70;2.20;;;;;;;;;;5051961;28;20025;-69
2023/07/29 01:11:14;;;;;;;4.80;2.90;;;;;;;;;;5053583;28;20246;-69
2023/07/29 01:13:40;;;;;;;6.18;2.40;;;;;;;;;;5056079;28;20384;-69
2023/07/29 01:16:29;;;;;;;6.88;2.20;;;;;;;;;;5056190;28;20033;-73
2023/07/29 01:18:56;;;;;;;8.15;3.30;;;;;;;;;;5063838;28;20374;-74
2023/07/29 01:21:22;;;;;;;7.72;2.33;;;;;;;;;;5051738;28;20500;-73
2023/07/29 01:23:53;;;;;;;5.75;2.67;;;;;;;;;;5060290;28;20101;-72
2023/07/29 01:26:19;;;;;;;3.15;2.30;;;;;;;;;;5071161;28;20500;-73
2023/07/29 01:28:45;;;;;;;6.45;2.83;;;;;;;;;;5057086;28;20035;-72
2023/07/29 01:31:14;;;;;;;3.88;2.97;;;;;;;;;;5062498;28;20538;-73
2023/07/29 01:33:42;;;;;;;4.72;2.50;;;;;;;;;;5056031;28;20070;-73
2023/07/29 01:36:12;;;;;;;7.38;2.35;;;;;;;;;;5056264;28;20496;-73
2023/07/29 01:38:39;;;;;;;5.70;2.10;;;;;;;;;;5054236;28;20059;-72
2023/07/29 01:41:07;;;;;;;6.10;2.72;;;;;;;;;;5055874;28;20033;-72
2023/07/29 01:43:44;;;;;;;7.78;2.35;;;;;;;;;;5051371;28;20481;-72
2023/07/29 01:46:14;;;;;;;5.05;2.90;;;;;;;;;;5052193;28;20081;-73
2023/07/29 01:48:40;;;;;;;7.70;2.67;;;;;;;;;;5051189;28;20029;-73
2023/07/29 01:51:07;;;;;;;6.47;2.65;;;;;;;;;;5063604;28;20020;-72
2023/07/29 01:53:33;;;;;;;4.45;2.55;;;;;;;;;;5057816;28;20103;-72
2023/07/29 01:55:59;;;;;;;9.45;2.63;;;;;;;;;;5062391;28;20028;-73
2023/07/29 01:58:26;;;;;;;10.38;3.35;;;;;;;;;;5055360;28;20709;-72
2023/07/29 02:00:52;;;;;;;8.48;2.80;;;;;;;;;;5052923;28;20040;-74
2023/07/29 02:03:18;;;;;;;6.90;2.40;;;;;;;;;;5070153;28;20066;-73
2023/07/29 02:05:44;;;;;;;7.03;2.95;;;;;;;;;;5052583;28;20544;-73
2023/07/29 02:08:11;;;;;;;4.40;2.25;;;;;;;;;;5058330;28;20111;-73
2023/07/29 02:10:37;;;;;;;9.27;4.00;;;;;;;;;;5054228;28;20089;-72
2023/07/29 02:13:04;;;;;;;5.50;2.97;;;;;;;;;;5070393;28;20028;-72
2023/07/29 02:15:30;;;;;;;10.43;3.28;;;;;;;;;;5052519;28;20535;-72
2023/07/29 02:17:56;;;;;;;10.57;2.92;;;;;;;;;;5056694;28;20539;-72
2023/07/29 02:20:22;;;;;;;7.07;3.05;;;;;;;;;;5062256;28;20024;-73
2023/07/29 02:22:48;;;;;;;6.60;2.60;;;;;;;;;;5053635;28;20033;-72
2023/07/29 02:25:14;;;;;;;7.50;3.35;;;;;;;;;;5056374;28;20462;-73
2023/07/29 02:27:41;;;;;;;5.88;3.00;;;;;;;;;;5052115;28;20028;-73
2023/07/29 02:30:09;;;;;;;5.45;2.50;;;;;;;;;;5057606;28;20042;-73
2023/07/29 02:32:35;;;;;;;9.73;3.83;;;;;;;;;;5062491;28;20039;-72
2023/07/29 02:35:01;;;;;;;11.85;4.20;;;;;;;;;;5057217;28;20036;-73
2023/07/29 02:37:27;;;;;;;7.57;2.85;;;;;;;;;;5071672;28;20076;-72
2023/07/29 02:39:54;;;;;;;5.47;3.45;;;;;;;;;;5072319;28;20031;-73
2023/07/29 02:42:20;;;;;;;9.25;2.67;;;;;;;;;;5053856;28;20142;-72
2023/07/29 02:44:46;;;;;;;7.32;3.28;;;;;;;;;;5059912;28;20032;-72
2023/07/29 02:47:12;;;;;;;6.97;2.83;;;;;;;;;;5059492;28;20370;-73
2023/07/29 02:49:38;;;;;;;5.78;2.92;;;;;;;;;;5061931;28;20047;-73
2023/07/29 02:52:05;;;;;;;8.02;2.85;;;;;;;;;;5067817;28;20522;-72
2023/07/29 02:54:31;;;;;;;9.57;2.83;;;;;;;;;;5061745;28;20082;-72
2023/07/29 02:56:58;;;;;;;7.82;3.28;;;;;;;;;;5051767;28;20028;-73
2023/07/29 02:59:24;;;;;;;9.45;3.42;;;;;;;;;;5058692;28;20028;-73
2023/07/29 03:01:51;;;;;;;10.57;3.10;;;;;;;;;;5053536;28;20114;-74
2023/07/29 03:04:17;;;;;;;13.10;3.60;;;;;;;;;;5056835;28;20130;-72
2023/07/29 03:06:44;;;;;;;5.88;2.60;;;;;;;;;;5054664;28;20023;-72
2023/07/29 03:09:10;;;;;;;8.57;2.70;;;;;;;;;;5058188;28;20887;-73
2023/07/29 03:11:36;;;;;;;12.60;3.95;;;;;;;;;;5053426;28;20033;-72
2023/07/29 03:14:02;;;;;;;8.02;2.72;;;;;;;;;;5063744;28;20024;-73
2023/07/29 03:16:28;;;;;;;11.30;5.53;;;;;;;;;;5055023;28;20682;-73
2023/07/29 03:18:54;;;;;;;9.27;2.97;;;;;;;;;;5059827;28;20048;-72
2023/07/29 03:21:20;;;;;;;11.13;3.28;;;;;;;;;;5063521;28;20043;-73
2023/07/29 03:23:46;;;;;;;6.07;3.03;;;;;;;;;;5061242;28;20064;-72
2023/07/29 03:26:12;;;;;;;6.78;2.50;;;;;;;;;;5055042;28;20055;-72
2023/07/29 03:28:40;;;;;;;7.32;2.78;;;;;;;;;;5059867;28;20028;-73
2023/07/29 03:31:06;;;;;;;11.70;2.72;;;;;;;;;;5055748;28;20772;-72
2023/07/29 03:33:32;;;;;;;7.97;2.63;;;;;;;;;;5050933;28;20040;-73
2023/07/29 03:35:58;;;;;;;11.48;3.08;;;;;;;;;;5054540;28;20594;-73
2023/07/29 03:38:24;;;;;;;6.57;3.38;;;;;;;;;;5050340;28;20066;-72
2023/07/29 03:40:51;;;;;;;10.07;2.72;;;;;;;;;;5065427;28;20377;-74
2023/07/29 03:43:17;;;;;;;7.70;2.90;;;;;;;;;;5049342;28;20037;-73
2023/07/29 03:45:43;;;;;;;8.00;3.78;;;;;;;;;;5055797;28;20472;-72
2023/07/29 03:48:09;;;;;;;6.90;2.85;;;;;;;;;;5051156;28;20029;-73
2023/07/29 03:50:36;;;;;;;5.45;3.28;;;;;;;;;;5056196;28;20032;-73
2023/07/29 03:53:03;;;;;;;7.25;2.83;;;;;;;;;;5059904;28;20028;-72
2023/07/29 03:55:32;;;;;;;7.10;2.85;;;;;;;;;;5045890;28;20626;-72
2023/07/29 03:57:59;;;;;;;8.50;3.83;;;;;;;;;;5060136;28;20049;-72
2023/07/29 04:00:25;;;;;;;9.68;3.10;;;;;;;;;;5057979;28;20154;-72
2023/07/29 04:02:51;;;;;;;7.60;2.85;;;;;;;;;;5051991;28;20029;-73
2023/07/29 04:05:18;;;;;;;5.88;2.25;;;;;;;;;;5056080;28;20029;-73
2023/07/29 04:07:44;;;;;;;8.82;2.88;;;;;;;;;;5052154;28;20448;-73
2023/07/29 04:10:10;;;;;;;4.93;2.70;;;;;;;;;;5059297;28;20024;-72
2023/07/29 04:12:37;;;;;;;7.82;3.00;;;;;;;;;;5053450;28;20040;-73
2023/07/29 04:15:03;;;;;;;8.68;2.97;;;;;;;;;;5056220;28;20202;-72
2023/07/29 04:17:29;;;;;;;4.05;2.53;;;;;;;;;;5053546;28;20550;-73
2023/07/29 04:19:55;;;;;;;10.32;2.53;;;;;;;;;;5053429;28;20040;-73
2023/07/29 04:22:21;;;;;;;7.05;3.42;;;;;;;;;;5053726;28;20400;-72
2023/07/29 04:24:47;;;;;;;10.88;3.22;;;;;;;;;;5056653;28;20528;-72
2023/07/29 04:27:13;;;;;;;7.63;2.40;;;;;;;;;;5055677;28;20515;-72
2023/07/29 04:29:40;;;;;;;7.38;3.33;;;;;;;;;;5058888;28;20032;-73
2023/07/29 04:32:06;;;;;;;5.85;2.92;;;;;;;;;;5068075;28;20039;-73
2023/07/29 04:34:32;;;;;;;6.47;2.80;;;;;;;;;;5065342;28;20147;-73
2023/07/29 04:36:58;;;;;;;9.40;3.88;;;;;;;;;;5064203;28;20025;-71
2023/07/29 04:39:24;;;;;;;11.60;3.08;;;;;;;;;;5062223;28;20099;-72
2023/07/29 04:41:51;;;;;;;8.32;3.08;;;;;;;;;;5075933;28;20396;-72
2023/07/29 04:44:17;;;;;;;8.50;2.80;;;;;;;;;;5057810;28;20024;-73
2023/07/29 04:46:43;;;;;;;7.55;3.00;;;;;;;;;;5072706;28;20036;-73
2023/07/29 04:49:09;;;;;;;6.22;2.80;;;;;;;;;;5060874;28;20029;-72
2023/07/29 04:51:37;;;;;;;10.32;2.63;;;;;;;;;;5055221;28;20103;-72
2023/07/29 04:54:03;;;;;;;11.32;3.00;;;;;;;;;;5066226;28;20711;-72
2023/07/29 04:56:29;;;;;;;11.15;3.30;;;;;;;;;;5065435;28;20032;-73
2023/07/29 04:58:55;;;;;;;6.45;2.80;;;;;;;;;;5053008;28;20035;-72
2023/07/29 05:01:21;;;;;;;8.93;3.70;;;;;;;;;;5074383;28;20032;-73
2023/07/29 05:03:47;;;;;;;7.55;2.88;;;;;;;;;;5054638;28;20024;-73
2023/07/29 05:06:13;;;;;;;7.68;2.80;;;;;;;;;;5056263;28;20104;-74
2023/07/29 05:08:39;;;;;;;8.10;2.63;;;;;;;;;;5060697;28;20035;-72
2023/07/29 05:11:05;;;;;;;6.50;2.70;;;;;;;;;;5055405;28;20039;-73
2023/07/29 05:13:31;;;;;;;10.88;3.63;;;;;;;;;;5056508;28;20036;-72
2023/07/29 05:15:58;;;;;;;5.75;2.72;;;;;;;;;;5050395;28;20040;-72
2023/07/29 05:18:24;;;;;;;7.75;2.60;;;;;;;;;;5060034;28;20037;-73
2023/07/29 05:20:50;;;;;;;7.53;2.85;;;;;;;;;;5065025;28;20032;-73
2023/07/29 05:23:16;;;;;;;14.25;3.15;;;;;;;;;;5058240;28;20036;-72
2023/07/29 05:25:42;;;;;;;7.35;3.22;;;;;;;;;;5061711;28;20590;-73
2023/07/29 05:28:08;;;;;;;9.45;2.72;;;;;;;;;;5057689;28;20542;-74
2023/07/29 05:30:37;;;;;;;7.22;2.90;;;;;;;;;;5063474;28;20446;-74
2023/07/29 05:33:04;;;;;;;6.13;2.60;;;;;;;;;;5060246;28;20055;-72
2023/07/29 05:35:30;;;;;;;7.10;3.20;;;;;;;;;;5054810;28;20482;-73
2023/07/29 05:37:58;;;;;;;9.52;3.95;;;;;;;;;;5056949;28;20392;-72
2023/07/29 05:40:24;;;;;;;6.22;2.40;;;;;;;;;;5074550;28;20035;-72
2023/07/29 05:42:50;;;;;;;11.65;3.22;;;;;;;;;;5054140;28;20029;-72
2023/07/29 05:45:17;;;;;;;5.55;2.72;;;;;;;;;;5057172;28;20072;-71
2023/07/29 05:47:43;;;;;;;5.70;2.58;;;;;;;;;;5057224;28;20448;-72
2023/07/29 05:50:09;;;;;;;7.75;2.83;;;;;;;;;;5062393;28;20385;-72
2023/07/29 05:52:35;;;;;;;10.45;2.92;;;;;;;;;;5062782;28;20422;-72
2023/07/29 05:55:01;;;;;;;8.98;2.45;;;;;;;;;;5067235;28;20499;-73
2023/07/29 05:57:28;;;;;;;6.20;2.83;;;;;;;;;;5063822;28;20660;-73
2023/07/29 05:59:54;;;;;;;5.50;2.35;;;;;;;;;;5063348;28;20082;-72
2023/07/29 06:02:20;;;;;;;4.40;2.72;;;;;;;;;;5059690;28;20031;-73
2023/07/29 06:04:47;;;;;;;7.82;2.58;;;;;;;;;;5057053;28;20103;-71
2023/07/29 06:07:13;;;;;;;6.05;2.58;;;;;;;;;;5052738;28;20051;-73
2023/07/29 06:09:40;;;;;;;7.47;2.55;;;;;;;;;;5055375;28;20035;-72
2023/07/29 06:12:06;;;;;;;8.27;2.70;;;;;;;;;;5052748;28;20160;-73
2023/07/29 06:14:32;;;;;;;11.07;3.13;;;;;;;;;;5042855;28;20029;-74
2023/07/29 06:16:58;;;;;;;6.65;2.90;;;;;;;;;;5054564;28;20025;-73
2023/07/29 06:19:24;;;;;;;6.25;2.70;;;;;;;;;;5051235;28;20067;-73
2023/07/29 06:21:50;;;;;;;7.38;2.80;;;;;;;;;;5047792;28;20475;-73
2023/07/29 06:24:16;;;;;;;8.73;3.22;;;;;;;;;;5060789;28;20040;-73
2023/07/29 06:26:42;;;;;;;9.32;3.97;;;;;;;;;;5065181;28;20021;-73
2023/07/29 06:29:08;;;;;;;10.73;3.50;;;;;;;;;;5048895;28;20024;-73
2023/07/29 06:31:35;;;;;;;9.75;4.15;;;;;;;;;;5073040;28;20029;-73
2023/07/29 06:34:01;;;;;;;6.40;2.90;;;;;;;;;;5057744;28;20594;-73
2023/07/29 06:36:27;;;;;;;11.07;2.97;;;;;;;;;;5053758;28;20033;-73
2023/07/29 06:38:53;;;;;;;11.13;3.78;;;;;;;;;;5056419;28;20063;-73
2023/07/29 06:41:21;;;;;;;8.77;2.88;;;;;;;;;;5054799;28;20041;-73
2023/07/29 06:43:47;;;;;;;5.22;2.58;;;;;;;;;;5056355;28;20020;-73
2023/07/29 06:46:13;;;;;;;5.78;2.40;;;;;;;;;;5052305;28;20029;-73
2023/07/29 06:48:39;;;;;;;8.18;2.70;;;;;;;;;;5050026;28;20021;-73
2023/07/29 06:51:05;;;;;;;5.53;3.30;;;;;;;;;;5052860;28;20043;-73
2023/07/29 06:53:31;;;;;;;9.95;2.50;;;;;;;;;;5060857;28;20435;-73
2023/07/29 06:55:58;;;;;;;8.57;4.28;;;;;;;;;;5050659;28;20024;-73
2023/07/29 06:58:24;;;;;;;8.95;2.50;;;;;;;;;;5057546;28;20036;-73
2023/07/29 07:00:50;;;;;;;7.07;2.60;;;;;;;;;;5056012;28;20033;-73
2023/07/29 07:03:17;;;;;;;5.63;2.53;;;;;;;;;;5054920;28;20797;-73
2023/07/29 07:05:43;;;;;;;5.10;2.42;;;;;;;;;;5053697;28;20461;-73
2023/07/29 07:08:09;;;;;;;5.15;2.70;;;;;;;;;;5054353;28;20090;-73
2023/07/29 07:10:35;;;;;;;7.13;2.28;;;;;;;;;;5057561;28;20024;-73
2023/07/29 07:13:01;;;;;;;7.45;2.90;;;;;;;;;;5054734;28;20040;-73
2023/07/29 07:15:27;;;;;;;5.28;2.67;;;;;;;;;;5055434;28;20047;-74
2023/07/29 07:17:53;;;;;;;7.97;2.70;;;;;;;;;;5055936;28;20027;-73
2023/07/29 07:20:22;;;;;;;6.07;2.92;;;;;;;;;;5058485;28;20032;-73
2023/07/29 07:22:48;;;;;;;4.38;2.55;;;;;;;;;;5056571;28;20087;-72
2023/07/29 07:25:14;;;;;;;6.18;2.47;;;;;;;;;;5054658;28;20106;-72
2023/07/29 07:27:40;;;;;;;6.35;2.60;;;;;;;;;;5067719;28;20021;-72
2023/07/29 07:30:08;;;;;;;8.40;2.72;;;;;;;;;;5051833;28;20106;-73
2023/07/29 07:32:34;;;;;;;8.55;3.33;;;;;;;;;;5058837;28;20030;-72
2023/07/29 07:35:00;;;;;;;5.80;2.45;;;;;;;;;;5054273;28;20076;-73
2023/07/29 07:37:26;;;;;;;9.00;2.58;;;;;;;;;;5057071;28;20109;-73
2023/07/29 07:39:52;;;;;;;6.43;2.70;;;;;;;;;;5055448;28;20029;-73
2023/07/29 07:42:18;;;;;;;7.45;3.10;;;;;;;;;;5053688;28;20040;-72
2023/07/29 07:44:47;;;;;;;8.98;3.05;;;;;;;;;;5057571;28;20021;-72
2023/07/29 07:47:13;;;;;;;8.10;2.80;;;;;;;;;;5058792;28;20134;-73
2023/07/29 07:49:39;;;;;;;6.82;2.70;;;;;;;;;;5060417;28;20446;-73
2023/07/29 07:52:05;;;;;;;12.43;3.83;;;;;;;;;;5060013;28;20476;-73
2023/07/29 07:54:31;;;;;;;5.53;2.88;;;;;;;;;;5063414;28;20090;-72
2023/07/29 07:56:57;;;;;;;8.63;2.78;;;;;;;;;;5056236;28;20025;-72
2023/07/29 07:59:23;;;;;;;15.05;3.13;;;;;;;;;;5063943;28;20560;-73
2023/07/29 08:01:50;;;;;;;10.38;3.40;;;;;;;;;;5053762;28;20031;-72
2023/07/29 08:04:16;;;;;;;5.75;2.75;;;;;;;;;;5057262;28;20636;-72
2023/07/29 08:06:42;;;;;;;7.70;2.65;;;;;;;;;;5057759;28;20460;-72
2023/07/29 08:09:08;;;;;;;6.88;2.55;;;;;;;;;;5056337;28;20590;-72
2023/07/29 08:11:34;;;;;;;6.90;2.50;;;;;;;;;;5051805;28;20051;-72
2023/07/29 08:14:00;;;;;;;6.40;2.78;;;;;;;;;;5065766;28;20025;-73
2023/07/29 08:16:26;;;;;;;6.53;2.10;;;;;;;;;;5052141;28;20044;-73
2023/07/29 08:18:53;;;;;;;9.10;2.22;;;;;;;;;;5066930;28;20069;-73
2023/07/29 08:21:19;;;;;;;6.43;3.33;;;;;;;;;;5074441;28;20045;-73
2023/07/29 08:23:45;;;;;;;9.10;3.10;;;;;;;;;;5054607;28;20029;-71
2023/07/29 08:26:11;;;;;;;7.82;2.88;;;;;;;;;;5064460;28;20107;-71
2023/07/29 08:28:38;;;;;;;5.88;2.70;;;;;;;;;;5060799;28;20021;-73
2023/07/29 08:31:05;;;;;;;6.97;2.90;;;;;;;;;;5057394;28;20055;-73
2023/07/29 08:33:33;;;;;;;7.22;2.95;;;;;;;;;;5058607;28;20138;-70
2023/07/29 08:35:59;;;;;;;7.47;2.90;;;;;;;;;;5065755;28;20069;-72
2023/07/29 08:38:26;;;;;;;10.38;2.70;;;;;;;;;;5055704;28;20032;-72
2023/07/29 08:40:52;;;;;;;6.63;2.45;;;;;;;;;;5056544;28;20086;-72
2023/07/29 08:43:20;;;;;;;5.60;2.88;;;;;;;;;;5062262;28;20039;-71
2023/07/29 08:45:47;;;;;;;9.13;2.97;;;;;;;;;;5060313;28;20056;-72
2023/07/29 08:48:13;;;;;;;8.05;3.17;;;;;;;;;;5059459;28;20503;-72
2023/07/29 08:50:39;;;;;;;8.07;2.53;;;;;;;;;;5060333;28;20041;-72
2023/07/29 08:53:06;;;;;;;7.30;2.65;;;;;;;;;;5067650;28;20389;-69
2023/07/29 08:55:33;;;;;;;9.00;3.00;;;;;;;;;;5062250;28;20047;-69
2023/07/29 08:58:00;;;;;;;7.57;3.40;;;;;;;;;;5065807;28;20085;-69
2023/07/29 09:00:27;;;;;;;6.35;3.10;;;;;;;;;;5054783;28;20027;-68
2023/07/29 09:02:53;;;;;;;7.47;2.47;;;;;;;;;;5056084;28;20632;-68
2023/07/29 09:05:21;;;;;;;9.75;2.97;;;;;;;;;;5062155;28;20119;-68
2023/07/29 09:07:48;;;;;;;8.48;2.40;;;;;;;;;;5060442;28;20033;-69
2023/07/29 09:10:15;;;;;;;7.30;3.50;;;;;;;;;;5062417;28;20044;-68
2023/07/29 09:12:41;;;;;;;6.75;2.40;;;;;;;;;;5061657;28;20112;-68
2023/07/29 09:15:07;;;;;;;5.90;2.60;;;;;;;;;;5063599;28;20021;-68
2023/07/29 09:17:34;;;;;;;5.90;3.13;;;;;;;;;;5055157;28;20029;-69
2023/07/29 09:20:00;;;;;;;10.82;3.15;;;;;;;;;;5059966;28;20087;-69
2023/07/29 09:22:27;;;;;;;6.32;2.55;;;;;;;;;;5066355;28;20048;-68
2023/07/29 09:24:58;;;;;;;10.70;2.47;;;;;;;;;;5059666;28;20436;-69
2023/07/29 09:27:28;;;;;;;9.45;2.78;;;;;;;;;;5065345;28;20028;-68
2023/07/29 09:29:54;;;;;;;8.32;2.30;;;;;;;;;;5057287;28;20021;-68
2023/07/29 09:32:23;;;;;;;8.82;2.70;;;;;;;;;;5061872;28;20554;-68
2023/07/29 09:34:50;;;;;;;5.57;2.85;;;;;;;;;;5057243;28;20050;-68
2023/07/29 09:37:16;;;;;;;5.80;3.00;;;;;;;;;;5064093;28;20061;-68
2023/07/29 09:39:46;;;;;;;7.32;2.50;;;;;;;;;;5053174;28;20072;-68
2023/07/29 09:42:18;;;;;;;7.72;2.63;;;;;;;;;;5062566;28;20374;-68
2023/07/29 09:44:44;;;;;;;6.85;2.40;;;;;;;;;;5058778;28;20048;-68
2023/07/29 09:47:10;;;;;;;8.38;2.50;;;;;;;;;;5064410;28;20459;-68
2023/07/29 09:49:36;;;;;;;7.82;2.75;;;;;;;;;;5058740;28;20032;-68
2023/07/29 09:52:03;;;;;;;4.82;2.42;;;;;;;;;;5054618;28;20480;-68
2023/07/29 09:54:31;;;;;;;7.45;2.53;;;;;;;;;;5065448;28;20028;-68
2023/07/29 09:56:57;;;;;;;8.10;2.90;;;;;;;;;;5065575;28;20069;-69
2023/07/29 09:59:24;;;;;;;8.13;2.92;;;;;;;;;;5056826;28;20028;-68
2023/07/29 10:01:51;;;;;;;6.40;2.20;;;;;;;;;;5057682;28;20514;-69
2023/07/29 10:04:17;;;;;;;7.90;2.72;;;;;;;;;;5063274;28;20033;-68
2023/07/29 10:06:44;;;;;;;5.80;2.40;;;;;;;;;;5073021;28;20021;-69
2023/07/29 10:09:12;;;;;;;9.35;3.22;;;;;;;;;;5058434;28;20082;-69
2023/07/29 10:11:38;;;;;;;6.10;2.50;;;;;;;;;;5063798;28;20421;-69
2023/07/29 10:14:05;;;;;;;5.82;2.33;;;;;;;;;;5061114;28;20152;-68
2023/07/29 10:16:31;;;;;;;8.63;3.15;;;;;;;;;;5061098;28;20025;-68
2023/07/29 10:18:58;;;;;;;7.10;2.55;;;;;;;;;;5059455;28;20050;-68
2023/07/29 10:21:24;;;;;;;4.03;2.78;;;;;;;;;;5054572;28;20112;-68
2023/07/29 10:23:53;;;;;;;4.88;2.72;;;;;;;;;;5062520;28;20524;-68
2023/07/29 10:26:20;;;;;;;3.85;2.00;;;;;;;;;;5052255;28;20040;-69
2023/07/29 10:28:47;;;;;;;2.88;2.20;;;;;;;;;;5058899;28;20028;-69
2023/07/29 10:31:16;;;;;;;4.68;2.08;;;;;;;;;;5060335;28;21736;-69
2023/07/29 10:33:43;;;;;;;4.32;2.13;;;;;;;;;;5049141;28;20445;-69
2023/07/29 10:36:09;;;;;;;4.25;2.45;;;;;;;;;;5052278;28;20109;-69
2023/07/29 10:38:36;;;;;;;7.95;2.13;;;;;;;;;;5062906;28;20040;-70
2023/07/29 10:41:02;;;;;;;8.75;2.70;;;;;;;;;;5052161;28;20460;-69
2023/07/29 10:43:32;;;;;;;5.55;2.00;;;;;;;;;;5052344;28;20051;-68
2023/07/29 10:45:59;;;;;;;5.30;2.25;;;;;;;;;;5059929;28;20039;-69
2023/07/29 10:48:36;;;;;;;4.68;1.88;;;;;;;;;;5054715;28;20108;-71
2023/07/29 10:51:21;;;;;;;5.55;2.13;;;;;;;;;;5054547;28;20067;-69
2023/07/29 10:53:47;;;;;;;6.07;2.55;;;;;;;;;;5053058;28;20642;-70
2023/07/29 10:56:13;;;;;;;5.72;1.92;;;;;;;;;;5050542;28;20029;-68
2023/07/29 10:58:42;;;;;;;6.25;3.17;;;;;;;;;;5053733;28;20595;-70
2023/07/29 11:01:27;;;;;;;4.55;1.90;;;;;;;;;;5069402;28;20024;-69
2023/07/29 11:04:12;;;;;;;2.78;2.13;;;;;;;;;;5055567;28;20021;-69
2023/07/29 11:06:58;;;;;;;2.20;1.60;;;;;;;;;;5054991;28;20028;-70
2023/07/29 11:09:50;;;;;;;5.00;2.17;;;;;;;;;;5053431;28;20033;-68
2023/07/29 11:12:54;;;;;;;3.13;1.73;;;;;;;;;;5052182;28;20139;-69
2023/07/29 11:15:20;;;;;;;5.55;2.10;;;;;;;;;;5017992;28;20432;-70
2023/07/29 11:17:59;;;;;;;2.90;2.33;;;;;;;;;;5046050;28;20029;-70
2023/07/29 11:20:29;;;;;;;3.97;1.70;;;;;;;;;;5054176;28;20164;-70
2023/07/29 11:22:57;;;;;;;5.68;2.20;;;;;;;;;;5059761;28;20070;-70
2023/07/29 11:25:23;;;;;;;7.18;2.28;;;;;;;;;;5046937;28;20117;-70
2023/07/29 11:27:51;;;;;;;4.72;1.88;;;;;;;;;;5050680;28;20384;-73
2023/07/29 11:30:17;;;;;;;4.55;2.47;;;;;;;;;;5062841;28;20033;-73
2023/07/29 11:32:45;;;;;;;4.45;1.88;;;;;;;;;;5070487;28;20920;-73
2023/07/29 11:35:12;;;;;;;3.67;2.13;;;;;;;;;;5046743;28;20670;-73
2023/07/29 11:37:39;;;;;;;6.90;2.20;;;;;;;;;;5060120;28;20020;-73
2023/07/29 11:40:13;;;;;;;3.83;2.03;;;;;;;;;;5052779;28;20029;-73
2023/07/29 11:42:39;;;;;;;4.28;2.03;;;;;;;;;;5056820;28;20482;-74
2023/07/29 11:45:09;;;;;;;10.35;2.10;;;;;;;;;;5055733;28;20477;-73
2023/07/29 11:47:36;;;;;;;4.15;2.60;;;;;;;;;;5050911;28;20113;-73
2023/07/29 11:50:04;;;;;;;4.47;2.67;;;;;;;;;;5046733;28;20872;-70
2023/07/29 11:52:32;;;;;;;5.97;2.60;;;;;;;;;;5049325;28;20036;-70
2023/07/29 11:54:58;;;;;;;5.22;2.65;;;;;;;;;;5051227;28;20033;-72
2023/07/29 11:57:25;;;;;;;5.68;2.22;;;;;;;;;;5054028;28;20036;-72
2023/07/29 11:59:51;;;;;;;3.85;1.88;;;;;;;;;;5055166;28;20040;-71
2023/07/29 12:02:19;;;;;;;4.18;2.53;;;;;;;;;;5051679;28;20067;-73
2023/07/29 12:04:47;;;;;;;8.65;2.90;;;;;;;;;;5048096;28;20415;-71
2023/07/29 12:07:14;;;;;;;4.90;1.98;;;;;;;;;;5057005;28;20551;-70
2023/07/29 12:09:41;;;;;;;3.80;2.00;;;;;;;;;;5058995;28;20020;-70
2023/07/29 12:12:07;;;;;;;5.18;2.55;;;;;;;;;;5059132;28;20033;-71
2023/07/29 12:14:34;;;;;;;4.38;1.90;;;;;;;;;;5059714;28;20127;-72
2023/07/29 12:17:01;;;;;;;3.90;2.00;;;;;;;;;;5062000;28;20064;-71
2023/07/29 12:19:32;;;;;;;2.75;1.80;;;;;;;;;;5051688;28;20127;-71
2023/07/29 12:21:58;;;;;;;3.90;2.08;;;;;;;;;;5056833;28;20024;-71
2023/07/29 12:24:24;;;;;;;5.43;2.33;;;;;;;;;;5057639;28;20041;-71
2023/07/29 12:26:51;;;;;;;3.90;2.08;;;;;;;;;;5058459;28;20032;-71
2023/07/29 12:29:19;;;;;;;7.32;2.20;;;;;;;;;;5055323;28;20037;-71
2023/07/29 12:31:46;;;;;;;8.38;2.30;;;;;;;;;;5049477;28;20068;-72
2023/07/29 12:34:21;;;;;;;3.90;2.65;;;;;;;;;;5055046;28;20056;-71
2023/07/29 12:36:48;;;;;;;5.03;2.33;;;;;;;;;;5052104;28;20025;-71
2023/07/29 12:39:18;;;;;;;14.77;3.08;;;;;;;;;;5071081;28;20063;-71
2023/07/29 12:41:44;;;;;;;8.27;2.78;;;;;;;;;;5048969;28;20485;-68
2023/07/29 12:44:10;;;;;;;6.45;3.17;;;;;;;;;;5053525;28;20025;-63
2023/07/29 12:46:36;;;;;;;5.85;2.38;;;;;;;;;;5055846;28;20035;-67
2023/07/29 12:49:02;;;;;;;7.88;2.28;;;;;;;;;;5064179;28;20526;-68
2023/07/29 12:51:28;;;;;;;6.43;2.40;;;;;;;;;;5055239;28;20029;-69
2023/07/29 12:53:55;;;;;;;3.92;1.88;;;;;;;;;;5058059;28;20102;-70
2023/07/29 12:56:21;;;;;;;3.40;2.72;;;;;;;;;;5051157;28;20413;-70
2023/07/29 12:58:47;;;;;;;4.43;2.08;;;;;;;;;;5058219;28;20033;-70
2023/07/29 13:01:16;;;;;;;6.50;2.40;;;;;;;;;;5056059;28;20491;-69
2023/07/29 13:03:43;;;;;;;6.80;2.58;;;;;;;;;;5073177;28;20028;-69
2023/07/29 13:06:09;;;;;;;6.60;2.47;;;;;;;;;;5055617;28;20051;-70
2023/07/29 13:08:35;;;;;;;4.60;2.58;;;;;;;;;;5053414;28;20360;-70
2023/07/29 13:11:01;;;;;;;5.43;2.47;;;;;;;;;;5055672;28;20060;-69
2023/07/29 13:13:27;;;;;;;3.65;1.92;;;;;;;;;;5062175;28;20399;-69
2023/07/29 13:15:53;;;;;;;3.83;2.60;;;;;;;;;;5070857;28;20041;-69
2023/07/29 13:18:19;;;;;;;5.28;2.10;;;;;;;;;;5050720;28;20043;-69
2023/07/29 13:20:46;;;;;;;6.32;2.47;;;;;;;;;;5058921;28;20032;-69
2023/07/29 13:23:12;;;;;;;3.38;1.88;;;;;;;;;;5059530;28;20036;-70
2023/07/29 13:25:38;;;;;;;7.75;2.20;;;;;;;;;;5057507;28;20025;-68
2023/07/29 13:28:04;;;;;;;4.75;2.00;;;;;;;;;;5053454;28;20476;-70
2023/07/29 13:30:31;;;;;;;3.58;2.60;;;;;;;;;;5056305;28;20126;-70
2023/07/29 13:32:57;;;;;;;6.15;2.17;;;;;;;;;;5056096;28;20025;-71
2023/07/29 13:35:23;;;;;;;2.92;2.53;;;;;;;;;;5050690;28;20044;-70
2023/07/29 13:37:50;;;;;;;4.18;2.53;;;;;;;;;;5050583;28;20039;-70
2023/07/29 13:40:16;;;;;;;6.47;2.00;;;;;;;;;;5057497;28;20547;-69
2023/07/29 13:42:42;;;;;;;3.92;1.80;;;;;;;;;;5058077;28;20025;-70
2023/07/29 13:45:11;;;;;;;6.65;2.50;;;;;;;;;;5059463;28;20649;-70
2023/07/29 13:47:37;;;;;;;8.02;1.85;;;;;;;;;;5060739;28;20092;-70
2023/07/29 13:50:03;;;;;;;3.90;2.25;;;;;;;;;;5059001;28;20045;-70
2023/07/29 13:52:30;;;;;;;5.65;2.17;;;;;;;;;;5054885;28;20028;-71
2023/07/29 13:54:56;;;;;;;3.55;2.35;;;;;;;;;;5051356;28;20036;-71
2023/07/29 13:57:22;;;;;;;5.70;2.03;;;;;;;;;;5055874;28;20427;-70
2023/07/29 13:59:48;;;;;;;4.03;2.28;;;;;;;;;;5049891;28;20090;-71
2023/07/29 14:02:14;;;;;;;8.88;2.53;;;;;;;;;;5065291;28;20082;-70
2023/07/29 14:04:40;;;;;;;3.80;1.90;;;;;;;;;;5051490;28;20017;-71
2023/07/29 14:07:06;;;;;;;4.55;1.98;;;;;;;;;;5050582;28;20059;-71
2023/07/29 14:09:32;;;;;;;5.65;1.95;;;;;;;;;;5051826;28;20571;-71
2023/07/29 14:11:59;;;;;;;3.20;2.20;;;;;;;;;;5056429;28;20032;-71
2023/07/29 14:14:25;;;;;;;3.63;2.15;;;;;;;;;;5055385;28;20543;-71
2023/07/29 14:16:51;;;;;;;2.55;2.00;;;;;;;;;;5059388;28;20031;-71
2023/07/29 14:19:17;;;;;;;5.45;2.08;;;;;;;;;;5052664;28;20040;-71
2023/07/29 14:21:43;;;;;;;5.32;2.10;;;;;;;;;;5054036;28;20024;-71
2023/07/29 14:24:09;;;;;;;3.78;1.85;;;;;;;;;;5054520;28;20078;-71
2023/07/29 14:26:35;;;;;;;3.92;1.60;;;;;;;;;;5051343;28;20037;-71
2023/07/29 14:29:02;;;;;;;6.57;2.17;;;;;;;;;;5055657;28;20017;-72
2023/07/29 14:31:28;;;;;;;5.93;2.50;;;;;;;;;;5055260;28;20515;-73
2023/07/29 14:33:54;;;;;;;5.45;2.13;;;;;;;;;;5052773;28;20084;-71
2023/07/29 14:36:20;;;;;;;6.15;2.60;;;;;;;;;;5052095;28;20537;-72
2023/07/29 14:38:46;;;;;;;4.28;1.83;;;;;;;;;;5054473;28;20145;-71
2023/07/29 14:41:13;;;;;;;5.18;2.03;;;;;;;;;;5051001;28;20036;-71